Time;durP1;ratioP1;P1;durP2;ratioP2;P2;SDS_P1;SDS_P2;PMS_P1;PMS_P2;Temp;Humidity;BMP_temperature;BMP_pressure;BME280_temperature;BME280_humidity;BME280_pressure;Samples;Min_cycle;Max_cycle;Signal;HPM_P1;HPM_P2
2023/08/04 00:00:07;;;;;;;2.50;0.90;;;;;;;14.74;78.91;95081.28;4953071;28;20210;-84
2023/08/04 00:02:32;;;;;;;1.53;1.20;;;;;;;14.75;78.92;95084.72;4977438;28;20198;-84
2023/08/04 00:04:57;;;;;;;3.47;1.30;;;;;;;14.71;79.02;95078.25;4959409;28;20287;-84
2023/08/04 00:07:23;;;;;;;2.17;1.10;;;;;;;14.57;80.04;95086.91;4957884;28;20287;-83
2023/08/04 00:09:48;;;;;;;1.40;0.90;;;;;;;14.61;79.44;95085.56;4951422;28;20566;-83
2023/08/04 00:12:13;;;;;;;4.05;1.08;;;;;;;14.55;79.64;95094.94;4966345;28;20204;-83
2023/08/04 00:14:39;;;;;;;3.17;1.30;;;;;;;14.57;79.30;95095.56;4963181;28;20187;-85
2023/08/04 00:17:04;;;;;;;2.33;1.00;;;;;;;14.48;79.76;95091.44;4959853;28;20208;-84
2023/08/04 00:19:29;;;;;;;2.13;1.03;;;;;;;14.51;79.88;95092.91;4974071;28;20192;-83
2023/08/04 00:21:55;;;;;;;3.67;1.20;;;;;;;14.46;80.18;95098.66;4949766;28;20204;-84
2023/08/04 00:24:21;;;;;;;2.97;1.20;;;;;;;14.35;80.60;95089.44;4959936;28;20192;-85
2023/08/04 00:26:46;;;;;;;3.50;1.20;;;;;;;14.38;80.25;95083.84;4962052;28;20207;-85
2023/08/04 00:29:11;;;;;;;4.27;1.07;;;;;;;14.34;80.75;95098.28;4958124;28;20625;-83
2023/08/04 00:31:37;;;;;;;2.87;1.13;;;;;;;14.36;80.53;95092.88;4952444;28;20194;-84
2023/08/04 00:34:02;;;;;;;2.70;1.20;;;;;;;14.33;80.94;95090.63;4970476;28;20192;-85
2023/08/04 00:36:27;;;;;;;3.53;1.43;;;;;;;14.22;81.84;95091.06;4966583;28;20255;-85
2023/08/04 00:38:53;;;;;;;2.20;1.00;;;;;;;14.37;80.88;95095.28;4957433;28;20188;-83
2023/08/04 00:41:18;;;;;;;2.63;1.17;;;;;;;14.38;81.22;95083.03;4961987;28;20191;-85
2023/08/04 00:43:43;;;;;;;2.60;1.00;;;;;;;14.37;81.45;95079.63;4971726;28;20188;-82
2023/08/04 00:46:09;;;;;;;4.73;1.13;;;;;;;14.45;80.71;95084.78;4954438;28;20380;-85
2023/08/04 00:48:35;;;;;;;3.57;1.40;;;;;;;14.45;80.36;95091.81;4949362;28;20208;-85
2023/08/04 00:51:01;;;;;;;1.93;1.00;;;;;;;14.48;80.75;95082.78;4957607;28;20227;-85
2023/08/04 00:53:27;;;;;;;2.35;1.00;;;;;;;14.45;80.83;95084.78;4944691;28;20188;-85
2023/08/04 00:55:52;;;;;;;4.18;1.20;;;;;;;14.56;80.71;95087.91;4955670;28;20235;-84
2023/08/04 00:58:17;;;;;;;5.23;1.40;;;;;;;14.48;80.27;95088.81;4978101;28;20263;-85
2023/08/04 01:00:43;;;;;;;2.27;1.50;;;;;;;14.47;79.98;95089.81;4959116;28;20188;-86
2023/08/04 01:03:08;;;;;;;5.43;1.53;;;;;;;14.45;80.07;95100.44;4953918;28;20273;-85
2023/08/04 01:05:46;;;;;;;2.97;1.33;;;;;;;14.44;80.09;95090.97;4963659;28;20212;-85
2023/08/04 01:08:19;;;;;;;2.40;1.10;;;;;;;14.37;80.41;95084.84;4948264;28;20194;-85
2023/08/04 01:10:53;;;;;;;3.43;1.13;;;;;;;14.41;80.46;95087.94;4950954;28;20765;-86
2023/08/04 01:13:21;;;;;;;4.43;1.23;;;;;;;14.39;80.38;95085.47;4969110;28;20418;-84
2023/08/04 01:15:47;;;;;;;4.43;2.00;;;;;;;14.32;80.49;95089.81;4974637;28;20207;-84
2023/08/04 01:18:12;;;;;;;3.03;1.30;;;;;;;14.34;80.68;95082.59;4943760;28;20192;-85
2023/08/04 01:20:38;;;;;;;3.20;1.30;;;;;;;14.36;80.38;95087.66;4944442;28;20193;-85
2023/08/04 01:23:03;;;;;;;1.40;0.90;;;;;;;14.35;80.46;95084.22;4966667;28;20203;-85
2023/08/04 01:25:34;;;;;;;1.67;0.90;;;;;;;14.23;81.47;95088.31;4966675;28;20239;-85
2023/08/04 01:28:01;;;;;;;5.83;1.00;;;;;;;14.22;81.74;95084.03;4955670;28;20271;-85
2023/08/04 01:30:28;;;;;;;1.60;1.00;;;;;;;14.30;81.15;95083.94;4972271;28;20299;-84
2023/08/04 01:32:53;;;;;;;2.23;1.03;;;;;;;14.32;81.04;95083.78;4961770;28;20328;-84
2023/08/04 01:35:19;;;;;;;2.43;1.00;;;;;;;14.37;80.56;95087.47;4948768;28;20258;-85
2023/08/04 01:37:44;;;;;;;3.87;1.10;;;;;;;14.38;80.51;95089.06;4959858;28;20185;-85
2023/08/04 01:40:13;;;;;;;3.37;1.20;;;;;;;14.27;81.19;95084.31;4966126;28;20184;-85
2023/08/04 01:42:39;;;;;;;3.53;1.17;;;;;;;14.32;80.73;95079.38;4968750;28;20230;-85
2023/08/04 01:45:05;;;;;;;3.43;1.10;;;;;;;14.31;80.93;95074.31;4970049;28;20243;-85
2023/08/04 01:47:30;;;;;;;3.43;1.33;;;;;;;14.36;80.73;95079.81;4952762;28;20278;-85
2023/08/04 01:49:55;;;;;;;3.43;1.20;;;;;;;14.17;81.66;95065.50;4963611;28;20580;-84
2023/08/04 01:52:21;;;;;;;1.80;0.93;;;;;;;14.23;81.71;95085.69;4975007;28;20557;-85
2023/08/04 01:54:47;;;;;;;2.50;1.00;;;;;;;14.37;81.34;95082.22;4977181;28;20192;-86
2023/08/04 01:57:12;;;;;;;2.57;1.00;;;;;;;14.32;81.36;95081.19;4975428;28;20192;-85
2023/08/04 01:59:37;;;;;;;2.77;1.20;;;;;;;14.27;81.53;95086.13;4954855;28;20189;-85
2023/08/04 02:02:03;;;;;;;5.43;2.10;;;;;;;14.37;81.30;95086.66;4968212;28;20208;-85
2023/08/04 02:04:28;;;;;;;3.07;1.13;;;;;;;14.41;81.74;95083.50;4971362;28;20196;-85
2023/08/04 02:06:53;;;;;;;1.40;1.10;;;;;;;14.34;82.06;95082.59;4957413;28;20223;-85
2023/08/04 02:09:19;;;;;;;2.13;0.90;;;;;;;14.47;81.42;95086.41;4961180;28;20220;-85
2023/08/04 02:11:44;;;;;;;3.20;1.20;;;;;;;14.31;82.05;95077.75;4962382;28;20188;-85
2023/08/04 02:14:09;;;;;;;4.57;1.20;;;;;;;14.44;81.62;95075.28;4974535;28;20188;-84
2023/08/04 02:16:35;;;;;;;2.20;1.20;;;;;;;14.51;81.32;95087.66;4991348;28;20216;-86
2023/08/04 02:19:10;;;;;;;3.70;1.17;;;;;;;14.61;81.04;95082.97;4974071;28;20196;-86
2023/08/04 02:21:36;;;;;;;2.83;1.00;;;;;;;14.55;81.20;95083.69;4949944;28;20238;-84
2023/08/04 02:24:02;;;;;;;4.53;1.30;;;;;;;14.48;81.39;95078.38;4960562;28;20328;-85
2023/08/04 02:26:27;;;;;;;4.00;1.00;;;;;;;14.59;80.83;95079.72;4946677;28;20207;-85
2023/08/04 02:28:53;;;;;;;3.13;1.10;;;;;;;14.59;80.56;95079.72;4963065;28;20246;-85
2023/08/04 02:31:19;;;;;;;4.43;1.00;;;;;;;14.61;80.88;95085.56;4978428;28;20184;-83
2023/08/04 02:33:45;;;;;;;2.73;1.00;;;;;;;14.65;80.83;95077.16;4974583;28;20575;-83
2023/08/04 02:36:11;;;;;;;2.00;0.93;;;;;;;14.66;80.42;95075.38;4960933;28;20697;-83
2023/08/04 02:38:36;;;;;;;2.47;1.10;;;;;;;14.58;81.23;95085.94;4952038;28;20282;-83
2023/08/04 02:41:05;;;;;;;4.53;1.20;;;;;;;14.63;80.83;95083.59;4966978;28;20275;-83
2023/08/04 02:43:31;;;;;;;2.27;1.07;;;;;;;14.55;81.05;95084.50;4947904;28;20189;-83
2023/08/04 02:45:56;;;;;;;2.37;1.03;;;;;;;14.59;80.93;95084.94;4954649;28;20214;-84
2023/08/04 02:48:22;;;;;;;1.97;1.00;;;;;;;14.62;80.74;95082.78;4951958;28;20219;-84
2023/08/04 02:50:47;;;;;;;1.50;0.80;;;;;;;14.55;80.88;95083.69;4965924;28;20204;-84
2023/08/04 02:53:15;;;;;;;2.83;1.27;;;;;;;14.57;80.67;95081.69;4969110;28;20196;-83
2023/08/04 02:55:41;;;;;;;3.67;1.20;;;;;;;14.43;81.56;95081.53;4934551;28;20267;-84
2023/08/04 02:58:06;;;;;;;3.23;1.07;;;;;;;14.48;81.04;95080.19;4961163;28;20197;-84
2023/08/04 03:00:31;;;;;;;3.93;1.17;;;;;;;14.50;81.37;95080.81;4963151;28;20533;-84
2023/08/04 03:02:58;;;;;;;1.77;1.13;;;;;;;14.30;81.63;95078.72;4971929;28;20204;-83
2023/08/04 03:05:23;;;;;;;2.37;0.90;;;;;;;14.21;82.80;95085.03;4976914;28;20208;-84
2023/08/04 03:07:49;;;;;;;2.58;1.00;;;;;;;14.18;82.98;95083.59;4977547;28;20275;-83
2023/08/04 03:10:14;;;;;;;2.33;1.07;;;;;;;14.17;83.19;95081.19;4976113;28;20239;-85
2023/08/04 03:12:39;;;;;;;4.87;1.10;;;;;;;14.00;84.21;95083.16;4988640;28;20721;-83
2023/08/04 03:15:05;;;;;;;3.27;1.00;;;;;;;14.07;83.98;95080.66;4968184;28;20207;-84
2023/08/04 03:17:30;;;;;;;1.97;1.20;;;;;;;14.15;83.91;95085.78;4967995;28;20192;-84
2023/08/04 03:19:56;;;;;;;2.87;1.20;;;;;;;14.37;82.27;95086.66;4982523;28;20196;-82
2023/08/04 03:22:21;;;;;;;3.13;1.07;;;;;;;14.28;82.80;95087.75;4961750;28;20578;-84
2023/08/04 03:24:46;;;;;;;2.50;1.10;;;;;;;14.27;82.90;95094.78;4976893;28;20286;-85
2023/08/04 03:27:12;;;;;;;2.00;0.90;;;;;;;14.45;82.54;95097.03;4951139;28;20314;-85
2023/08/04 03:29:37;;;;;;;1.87;0.83;;;;;;;14.50;81.94;95086.06;4962526;28;20286;-84
2023/08/04 03:32:03;;;;;;;2.85;1.15;;;;;;;14.55;81.79;95096.75;4971787;28;20192;-84
2023/08/04 03:34:28;;;;;;;3.90;1.40;;;;;;;14.49;81.45;95089.63;4969803;28;20309;-84
2023/08/04 03:36:54;;;;;;;2.13;0.70;;;;;;;14.48;81.36;95091.44;4961409;28;20696;-84
2023/08/04 03:39:19;;;;;;;1.33;0.90;;;;;;;14.54;81.25;95082.88;4972292;28;20211;-83
2023/08/04 03:41:45;;;;;;;2.60;0.97;;;;;;;14.68;80.63;95083.84;4963132;28;20196;-84
2023/08/04 03:44:10;;;;;;;4.93;0.90;;;;;;;14.55;80.67;95083.69;4975068;28;20199;-83
2023/08/04 03:46:36;;;;;;;1.50;0.70;;;;;;;14.50;81.08;95084.25;4945224;28;20208;-82
2023/08/04 03:49:01;;;;;;;1.60;0.80;;;;;;;14.57;80.56;95084.31;4947580;28;20651;-83
2023/08/04 03:51:26;;;;;;;3.22;1.00;;;;;;;14.60;80.40;95084.75;4949157;28;20248;-84
2023/08/04 03:53:52;;;;;;;5.05;1.00;;;;;;;14.65;80.31;95081.59;4948579;28;20635;-85
2023/08/04 03:56:17;;;;;;;4.18;1.17;;;;;;;14.71;79.41;95080.84;4943846;28;20279;-84
2023/08/04 03:58:42;;;;;;;2.83;0.88;;;;;;;14.70;79.79;95089.69;4969225;28;20614;-85
2023/08/04 04:01:08;;;;;;;1.40;0.98;;;;;;;14.45;80.67;95089.19;4960500;28;20191;-84
2023/08/04 04:03:33;;;;;;;1.25;0.85;;;;;;;14.58;79.99;95084.16;4950806;28;20715;-84
2023/08/04 04:05:58;;;;;;;2.58;1.10;;;;;;;14.67;79.66;95090.06;4961000;28;20727;-82
2023/08/04 04:08:25;;;;;;;3.73;0.80;;;;;;;14.53;79.99;95090.91;4950137;28;20240;-84
2023/08/04 04:10:50;;;;;;;2.25;0.80;;;;;;;14.61;79.49;95088.19;4949401;28;20216;-83
2023/08/04 04:13:15;;;;;;;2.70;0.87;;;;;;;14.74;79.04;95094.34;4948048;28;20220;-83
2023/08/04 04:15:41;;;;;;;1.45;0.80;;;;;;;14.61;79.54;95093.41;4942062;28;20311;-83
2023/08/04 04:18:06;;;;;;;0.87;0.70;;;;;;;14.67;79.58;95095.31;4956724;28;20195;-83
2023/08/04 04:20:31;;;;;;;1.73;0.70;;;;;;;14.66;80.01;95097.06;4957976;28;20181;-84
2023/08/04 04:22:56;;;;;;;2.00;0.67;;;;;;;14.77;79.75;95093.19;4960921;28;20611;-84
2023/08/04 04:25:22;;;;;;;5.17;0.83;;;;;;;14.70;79.82;95094.94;4958689;28;20212;-83
2023/08/04 04:27:47;;;;;;;1.10;0.70;;;;;;;14.74;79.78;95094.34;4957847;28;20650;-84
2023/08/04 04:30:12;;;;;;;1.90;1.00;;;;;;;14.68;79.70;95099.53;4950375;28;20284;-83
2023/08/04 04:32:38;;;;;;;1.95;0.80;;;;;;;14.84;79.32;95098.47;4970164;28;20196;-83
2023/08/04 04:35:03;;;;;;;1.52;1.00;;;;;;;14.79;79.52;95096.44;4960600;28;20192;-83
2023/08/04 04:37:29;;;;;;;1.95;0.90;;;;;;;14.98;78.86;95095.84;4956726;28;20192;-84
2023/08/04 04:39:54;;;;;;;4.03;1.10;;;;;;;15.05;78.39;95102.94;4958825;28;20185;-83
2023/08/04 04:42:19;;;;;;;1.35;0.70;;;;;;;15.06;78.57;95107.19;4962430;28;20231;-84
2023/08/04 04:44:45;;;;;;;3.17;0.80;;;;;;;15.16;78.38;95112.91;4962776;28;20303;-84
2023/08/04 04:47:10;;;;;;;1.90;0.88;;;;;;;15.11;78.42;95108.25;4949473;28;20661;-83
2023/08/04 04:49:35;;;;;;;1.05;0.80;;;;;;;15.00;78.63;95114.75;4957346;28;20246;-84
2023/08/04 04:52:01;;;;;;;2.13;0.57;;;;;;;14.84;79.23;95107.16;4965601;28;20242;-83
2023/08/04 04:54:26;;;;;;;3.28;0.77;;;;;;;14.93;79.34;95113.91;4972801;28;20592;-83
2023/08/04 04:56:51;;;;;;;1.05;0.52;;;;;;;15.04;78.95;95112.59;4974575;28;20211;-83
2023/08/04 04:59:17;;;;;;;3.53;1.10;;;;;;;15.15;78.41;95112.09;4956658;28;20649;-84
2023/08/04 05:01:43;;;;;;;2.53;0.90;;;;;;;15.28;77.54;95108.78;4972459;28;20188;-84
2023/08/04 05:04:09;;;;;;;3.08;0.77;;;;;;;15.37;77.97;95107.69;4954381;28;20204;-82
2023/08/04 05:06:34;;;;;;;0.95;0.80;;;;;;;15.52;77.44;95112.84;4970462;28;20216;-84
2023/08/04 05:08:59;;;;;;;1.67;0.90;;;;;;;15.59;76.92;95108.47;4973715;28;20227;-83
2023/08/04 05:11:25;;;;;;;1.60;0.73;;;;;;;15.64;76.84;95110.56;4960442;28;20188;-84
2023/08/04 05:13:50;;;;;;;2.00;0.90;;;;;;;15.68;76.76;95111.78;4952151;28;20197;-82
2023/08/04 05:16:15;;;;;;;1.95;0.82;;;;;;;15.76;76.14;95119.50;4960243;28;20291;-83
2023/08/04 05:18:40;;;;;;;2.83;0.80;;;;;;;15.86;75.75;95126.03;4961375;28;20188;-82
2023/08/04 05:21:06;;;;;;;1.75;0.90;;;;;;;15.86;75.42;95133.06;4961837;28;20191;-83
2023/08/04 05:23:31;;;;;;;1.10;0.70;;;;;;;15.94;75.17;95138.19;4961731;28;20196;-83
2023/08/04 05:25:57;;;;;;;4.68;0.90;;;;;;;16.02;74.92;95134.59;4953969;28;20239;-83
2023/08/04 05:28:22;;;;;;;5.95;1.00;;;;;;;16.03;75.52;95131.78;4960389;28;20196;-83
2023/08/04 05:30:48;;;;;;;1.33;0.80;;;;;;;16.10;74.87;95132.66;4979565;28;20196;-83
2023/08/04 05:33:13;;;;;;;3.47;1.25;;;;;;;16.15;74.04;95135.47;4960322;28;20189;-83
2023/08/04 05:35:38;;;;;;;0.90;0.60;;;;;;;16.22;74.58;95137.34;4961640;28;20244;-83
2023/08/04 05:38:04;;;;;;;3.20;0.88;;;;;;;16.27;74.69;95127.91;4964867;28;20313;-83
2023/08/04 05:40:29;;;;;;;0.82;0.73;;;;;;;16.32;74.30;95132.56;4967142;28;20180;-83
2023/08/04 05:42:55;;;;;;;1.17;0.70;;;;;;;16.14;74.27;95133.88;4960937;28;20296;-84
2023/08/04 05:45:21;;;;;;;1.00;0.70;;;;;;;16.26;73.92;95135.97;4955820;28;20212;-83
2023/08/04 05:47:46;;;;;;;4.63;0.90;;;;;;;16.31;73.62;95129.13;4955951;28;20211;-84
2023/08/04 05:50:11;;;;;;;1.48;0.93;;;;;;;16.33;73.47;95132.38;4962428;28;20580;-83
2023/08/04 05:52:37;;;;;;;2.50;1.10;;;;;;;16.40;73.65;95132.41;4976583;28;20191;-84
2023/08/04 05:55:02;;;;;;;4.38;1.23;;;;;;;16.45;72.97;95140.53;4973901;28;20267;-84
2023/08/04 05:57:28;;;;;;;1.88;0.73;;;;;;;16.58;72.79;95130.09;4972212;28;20196;-83
2023/08/04 05:59:54;;;;;;;3.03;1.02;;;;;;;16.63;71.67;95137.38;4952875;28;20209;-83
2023/08/04 06:02:19;;;;;;;1.60;0.95;;;;;;;16.86;71.86;95139.72;4947490;28;20598;-83
2023/08/04 06:04:44;;;;;;;1.00;0.77;;;;;;;16.99;71.29;95143.19;4990034;28;20193;-84
2023/08/04 06:07:09;;;;;;;3.78;0.80;;;;;;;17.05;72.24;95143.41;4975390;28;20565;-82
2023/08/04 06:09:35;;;;;;;2.78;1.00;;;;;;;16.97;73.30;95144.41;4961467;28;20212;-82
2023/08/04 06:12:00;;;;;;;2.03;1.10;;;;;;;16.96;73.28;95140.16;4958586;28;20196;-82
2023/08/04 06:14:25;;;;;;;2.28;0.90;;;;;;;16.87;72.79;95143.94;4956890;28;20212;-82
2023/08/04 06:16:51;;;;;;;3.90;0.80;;;;;;;16.84;73.00;95146.97;4954120;28;20231;-83
2023/08/04 06:19:16;;;;;;;6.68;1.55;;;;;;;16.68;73.73;95143.66;4970976;28;20192;-83
2023/08/04 06:21:41;;;;;;;1.45;0.98;;;;;;;16.73;73.94;95148.34;4964363;28;20192;-83
2023/08/04 06:24:07;;;;;;;1.20;1.10;;;;;;;16.38;76.21;95155.38;4955028;28;20188;-83
2023/08/04 06:26:32;;;;;;;3.00;1.25;;;;;;;16.74;74.79;95149.97;4944636;28;20592;-83
2023/08/04 06:28:57;;;;;;;2.08;0.85;;;;;;;16.63;75.66;95153.91;4960472;28;20555;-83
2023/08/04 06:31:23;;;;;;;3.08;1.10;;;;;;;16.67;76.82;95156.94;4944103;28;20248;-84
2023/08/04 06:33:48;;;;;;;3.53;1.00;;;;;;;16.83;76.28;95153.22;4964854;28;20326;-83
2023/08/04 06:36:13;;;;;;;1.90;1.05;;;;;;;16.84;76.49;95150.41;4960994;28;20208;-83
2023/08/04 06:38:39;;;;;;;2.65;1.10;;;;;;;17.06;76.52;95160.78;4970935;28;20307;-82
2023/08/04 06:41:04;;;;;;;2.25;1.40;;;;;;;17.19;75.96;95153.75;4971977;28;20745;-83
2023/08/04 06:43:29;;;;;;;4.82;1.38;;;;;;;17.43;74.55;95155.03;4961307;28;20670;-83
2023/08/04 06:45:54;;;;;;;1.60;0.95;;;;;;;17.38;74.66;95159.25;4961282;28;20628;-84
2023/08/04 06:48:21;;;;;;;2.90;1.00;;;;;;;17.19;75.82;95158.19;4972915;28;20192;-83
2023/08/04 06:50:47;;;;;;;2.47;1.10;;;;;;;17.55;74.79;95161.28;4969630;28;20765;-83
2023/08/04 06:53:12;;;;;;;1.90;1.02;;;;;;;17.47;75.90;95164.09;4986248;28;20187;-83
2023/08/04 06:55:37;;;;;;;1.00;0.90;;;;;;;17.56;77.07;95169.97;4992095;28;20193;-83
2023/08/04 06:58:03;;;;;;;1.73;1.05;;;;;;;17.39;76.04;95158.22;4973104;28;20169;-83
2023/08/04 07:00:28;;;;;;;2.65;0.95;;;;;;;17.09;76.03;95165.63;4982420;28;20173;-83
2023/08/04 07:02:53;;;;;;;4.75;1.10;;;;;;;17.72;74.03;95171.44;4971403;28;20188;-84
2023/08/04 07:05:19;;;;;;;1.15;0.90;;;;;;;17.83;74.26;95178.72;4961667;28;20213;-84
2023/08/04 07:07:47;;;;;;;1.33;0.95;;;;;;;17.72;74.71;95180.13;4961402;28;20195;-83
2023/08/04 07:10:12;;;;;;;2.30;1.05;;;;;;;17.82;73.28;95170.03;4969175;28;20291;-83
2023/08/04 07:12:37;;;;;;;1.50;1.20;;;;;;;17.31;75.39;95187.28;4952485;28;20239;-83
2023/08/04 07:15:04;;;;;;;5.47;1.25;;;;;;;17.12;76.87;95181.78;4967761;28;20602;-84
2023/08/04 07:17:29;;;;;;;1.38;1.10;;;;;;;17.44;75.72;95182.06;4952957;28;20189;-80
2023/08/04 07:19:54;;;;;;;2.38;1.02;;;;;;;17.76;74.48;95186.63;4962964;28;20275;-80
2023/08/04 07:22:20;;;;;;;1.20;0.90;;;;;;;18.32;72.08;95182.75;4982287;28;20238;-83
2023/08/04 07:24:53;;;;;;;3.17;1.13;;;;;;;18.91;68.06;95182.66;4962290;28;20199;-83
2023/08/04 07:27:18;;;;;;;2.20;1.00;;;;;;;19.25;67.76;95183.31;4945219;28;20180;-84
2023/08/04 07:29:44;;;;;;;1.15;0.90;;;;;;;19.41;66.54;95185.44;4971670;28;20208;-84
2023/08/04 07:32:09;;;;;;;2.83;0.85;;;;;;;19.13;68.02;95188.44;4971168;28;20192;-83
2023/08/04 07:34:35;;;;;;;2.00;0.95;;;;;;;19.03;68.30;95182.00;4975284;28;20183;-83
2023/08/04 07:37:00;;;;;;;0.80;0.80;;;;;;;19.36;65.57;95182.66;4961153;28;20246;-83
2023/08/04 07:39:25;;;;;;;1.48;0.80;;;;;;;19.33;65.55;95187.53;4961881;28;20200;-83
2023/08/04 07:41:51;;;;;;;4.95;1.08;;;;;;;19.27;66.80;95186.56;4963281;28;20195;-83
2023/08/04 07:44:16;;;;;;;5.53;0.90;;;;;;;19.44;65.71;95187.69;4967510;28;20596;-83
2023/08/04 07:46:41;;;;;;;1.50;0.90;;;;;;;19.20;67.06;95201.56;4965762;28;20696;-83
2023/08/04 07:49:07;;;;;;;2.88;0.90;;;;;;;18.84;68.67;95195.03;4970063;28;20262;-83
2023/08/04 07:51:32;;;;;;;2.90;1.20;;;;;;;18.80;70.42;95193.00;4963372;28;20200;-81
2023/08/04 07:53:57;;;;;;;3.22;1.42;;;;;;;18.68;71.51;95200.72;4973557;28;20198;-81
2023/08/04 07:56:22;;;;;;;2.55;1.23;;;;;;;18.95;67.32;95201.47;4974605;28;20332;-84
2023/08/04 07:58:48;;;;;;;1.45;1.00;;;;;;;18.74;69.19;95199.91;4944625;28;20251;-84
2023/08/04 08:01:13;;;;;;;1.90;0.93;;;;;;;19.05;69.21;95196.56;4960915;28;20602;-83
2023/08/04 08:03:39;;;;;;;2.15;1.10;;;;;;;19.12;67.62;95199.97;4946463;28;20188;-83
2023/08/04 08:06:05;;;;;;;2.00;0.90;;;;;;;19.15;66.88;95202.19;4955598;28;20204;-84
2023/08/04 08:08:31;;;;;;;1.52;0.90;;;;;;;19.64;66.44;95205.22;4954994;28;20266;-84
2023/08/04 08:10:56;;;;;;;2.13;0.85;;;;;;;19.40;66.72;95210.16;4967040;28;20200;-83
2023/08/04 08:13:23;;;;;;;1.15;0.80;;;;;;;20.01;64.12;95207.00;4962012;28;20231;-84
2023/08/04 08:15:48;;;;;;;1.42;0.85;;;;;;;19.69;65.72;95203.56;4975631;28;20319;-84
2023/08/04 08:18:14;;;;;;;1.08;0.98;;;;;;;19.73;64.92;95202.13;4961709;28;20251;-84
2023/08/04 08:20:40;;;;;;;2.33;1.00;;;;;;;19.13;67.53;95211.31;4960541;28;20718;-85
2023/08/04 08:23:06;;;;;;;2.00;1.10;;;;;;;19.06;67.70;95208.69;4949081;28;20215;-83
2023/08/04 08:25:31;;;;;;;1.85;1.15;;;;;;;19.24;68.50;95213.28;4959611;28;20286;-85
2023/08/04 08:27:56;;;;;;;2.95;1.30;;;;;;;18.94;68.89;95213.00;4969203;28;20216;-84
2023/08/04 08:30:22;;;;;;;1.58;1.13;;;;;;;18.60;70.33;95209.59;4949240;28;20714;-84
2023/08/04 08:32:47;;;;;;;2.13;1.05;;;;;;;18.93;69.07;95209.56;4965252;28;20618;-85
2023/08/04 08:35:12;;;;;;;1.48;1.15;;;;;;;18.84;69.89;95210.81;4945036;28;20216;-85
2023/08/04 08:37:38;;;;;;;2.42;1.50;;;;;;;18.30;71.64;95211.88;4960333;28;20192;-83
2023/08/04 08:40:04;;;;;;;1.85;0.93;;;;;;;18.31;72.17;95208.25;4947742;28;20196;-83
2023/08/04 08:42:29;;;;;;;1.95;0.90;;;;;;;18.36;72.16;95208.41;4966859;28;20207;-85
2023/08/04 08:44:54;;;;;;;1.23;1.08;;;;;;;18.04;74.04;95209.25;4977120;28;20184;-82
2023/08/04 08:47:20;;;;;;;1.52;1.25;;;;;;;17.81;73.92;95215.69;4963003;28;20255;-83
2023/08/04 08:49:47;;;;;;;1.40;0.82;;;;;;;17.93;76.26;95212.47;4961408;28;20597;-84
2023/08/04 08:52:13;;;;;;;2.70;1.30;;;;;;;17.89;77.88;95208.63;4944631;28;20189;-83
2023/08/04 08:54:38;;;;;;;3.53;1.63;;;;;;;17.51;80.33;95203.91;4957119;28;20188;-82
2023/08/04 08:57:05;;;;;;;1.40;0.90;;;;;;;17.54;80.75;95206.94;4943093;28;20223;-84
2023/08/04 08:59:31;;;;;;;3.67;1.33;;;;;;;17.52;81.39;95210.78;4962066;28;20295;-82
2023/08/04 09:01:57;;;;;;;2.35;1.40;;;;;;;17.30;83.85;95206.66;4948769;28;20176;-81
2023/08/04 09:04:22;;;;;;;3.42;1.67;;;;;;;17.10;84.08;95204.78;4958352;28;20215;-81
2023/08/04 09:06:48;;;;;;;3.03;1.20;;;;;;;17.08;85.93;95208.63;4968784;28;20203;-81
2023/08/04 09:09:13;;;;;;;2.53;1.33;;;;;;;16.73;88.07;95210.47;4972124;28;20226;-82
2023/08/04 09:11:38;;;;;;;2.55;1.30;;;;;;;17.22;87.32;95210.25;4975151;28;20192;-82
2023/08/04 09:14:05;;;;;;;3.53;1.55;;;;;;;17.35;86.61;95220.81;4975011;28;20184;-81
2023/08/04 09:16:33;;;;;;;1.92;1.52;;;;;;;17.49;87.03;95224.28;4971377;28;20231;-83
2023/08/04 09:19:04;;;;;;;2.22;1.38;;;;;;;17.58;86.64;95224.91;4972524;28;20188;-82
2023/08/04 09:21:29;;;;;;;3.92;1.40;;;;;;;17.43;87.01;95227.72;4952926;28;20191;-83
2023/08/04 09:23:55;;;;;;;1.48;1.20;;;;;;;17.24;86.52;95224.03;4956642;28;20557;-83
2023/08/04 09:26:20;;;;;;;3.40;1.52;;;;;;;17.35;87.01;95233.94;4952166;28;20204;-84
2023/08/04 09:28:48;;;;;;;3.60;1.50;;;;;;;17.42;85.43;95223.47;4963975;28;20207;-83
2023/08/04 09:31:14;;;;;;;3.58;1.30;;;;;;;17.55;84.86;95232.19;4962505;28;20223;-82
2023/08/04 09:33:41;;;;;;;5.28;1.55;;;;;;;17.22;85.63;95226.81;4977687;28;20503;-82
2023/08/04 09:36:16;;;;;;;2.50;1.38;;;;;;;17.47;86.37;95223.66;4957877;28;20204;-83
2023/08/04 09:38:42;;;;;;;3.38;1.85;;;;;;;17.96;83.32;95227.84;4954635;28;20191;-83
2023/08/04 09:41:11;;;;;;;2.58;1.25;;;;;;;18.12;85.01;95224.81;4969949;28;20185;-82
2023/08/04 09:43:49;;;;;;;3.15;1.48;;;;;;;18.25;84.53;95222.19;4952406;28;20625;-84
2023/08/04 09:46:19;;;;;;;1.15;1.02;;;;;;;18.51;83.69;95225.81;4961401;28;20235;-83
2023/08/04 09:48:45;;;;;;;2.85;1.58;;;;;;;18.99;82.27;95223.69;4980234;28;20212;-83
2023/08/04 09:51:11;;;;;;;1.85;1.48;;;;;;;18.85;78.80;95225.56;4962564;28;20215;-83
2023/08/04 09:53:44;;;;;;;2.47;1.02;;;;;;;18.92;77.06;95229.00;4975978;28;20207;-82
2023/08/04 09:56:11;;;;;;;1.35;1.10;;;;;;;19.18;77.59;95230.72;4952458;28;20213;-82
2023/08/04 09:58:37;;;;;;;2.92;1.20;;;;;;;19.22;76.54;95228.47;4952648;28;20185;-82
2023/08/04 10:01:02;;;;;;;1.85;1.20;;;;;;;19.15;73.88;95225.88;4936784;28;20188;-82
2023/08/04 10:03:28;;;;;;;1.23;1.13;;;;;;;19.53;74.83;95223.28;4951841;28;20211;-83
2023/08/04 10:05:55;;;;;;;1.65;1.08;;;;;;;19.67;75.22;95226.66;4961327;28;20208;-83
2023/08/04 10:08:20;;;;;;;1.35;1.00;;;;;;;19.60;74.31;95227.72;4963024;28;20511;-83
2023/08/04 10:10:46;;;;;;;2.35;1.88;;;;;;;19.24;77.15;95224.63;4977490;28;20291;-83
2023/08/04 10:13:11;;;;;;;1.25;1.15;;;;;;;19.50;75.50;95226.31;4957315;28;20227;-83
2023/08/04 10:15:36;;;;;;;1.90;1.50;;;;;;;19.17;75.55;95226.50;4960388;28;20306;-83
2023/08/04 10:18:03;;;;;;;2.05;1.30;;;;;;;18.75;76.32;95222.56;4970690;28;20188;-83
2023/08/04 10:20:33;;;;;;;2.75;1.20;;;;;;;18.37;78.24;95230.25;4962657;28;20271;-84
2023/08/04 10:22:58;;;;;;;2.65;1.20;;;;;;;17.93;80.85;95233.47;4977746;28;20236;-83
2023/08/04 10:25:24;;;;;;;2.60;1.52;;;;;;;17.74;83.13;95235.06;4958597;28;20797;-83
2023/08/04 10:27:50;;;;;;;1.77;1.50;;;;;;;17.86;82.69;95232.69;4958934;28;20565;-83
2023/08/04 10:30:15;;;;;;;2.53;1.13;;;;;;;17.70;82.46;95237.31;4951335;28;20204;-84
2023/08/04 10:32:41;;;;;;;1.63;1.45;;;;;;;17.70;85.18;95242.56;4956438;28;20330;-84
2023/08/04 10:35:19;;;;;;;2.35;1.30;;;;;;;17.55;86.79;95247.13;4948198;28;20589;-84
2023/08/04 10:37:48;;;;;;;2.50;1.25;;;;;;;17.52;85.90;95252.78;4948752;28;20654;-84
2023/08/04 10:40:14;;;;;;;1.55;1.25;;;;;;;17.56;86.19;95253.97;4948519;28;20860;-83
2023/08/04 10:43:03;;;;;;;1.75;1.33;;;;;;;17.48;89.36;95257.59;4944665;28;20184;-83
2023/08/04 10:46:03;;;;;;;3.10;1.10;;;;;;;17.17;87.88;95255.47;4958944;28;20212;-84
2023/08/04 10:48:28;;;;;;;2.05;1.60;;;;;;;17.15;87.90;95251.44;4971699;28;20204;-83
2023/08/04 10:50:54;;;;;;;1.27;1.17;;;;;;;16.88;91.21;95260.97;4972473;28;20220;-83
2023/08/04 10:53:19;;;;;;;2.30;1.40;;;;;;;16.97;91.42;95262.44;4952089;28;20185;-84
2023/08/04 10:55:54;;;;;;;1.50;1.25;;;;;;;16.96;92.16;95264.25;4964880;28;20206;-85
2023/08/04 10:58:19;;;;;;;2.20;1.10;;;;;;;16.99;90.76;95257.81;4971540;28;20232;-83
2023/08/04 11:00:45;;;;;;;2.28;1.30;;;;;;;17.14;89.86;95263.75;4958284;28;20184;-83
2023/08/04 11:03:21;;;;;;;1.40;1.20;;;;;;;17.06;90.51;95263.91;4961272;28;20256;-84
2023/08/04 11:05:48;;;;;;;1.73;1.60;;;;;;;17.18;88.71;95272.84;4953397;28;20219;-84
2023/08/04 11:08:13;;;;;;;2.40;0.98;;;;;;;17.21;88.63;95271.63;4947660;28;20201;-84
2023/08/04 11:10:48;;;;;;;1.92;0.90;;;;;;;17.20;87.05;95270.81;4965929;28;20223;-84
2023/08/04 11:13:15;;;;;;;1.20;1.10;;;;;;;17.23;86.33;95267.00;4948135;28;20648;-84
2023/08/04 11:15:42;;;;;;;1.00;0.90;;;;;;;17.41;86.71;95271.72;4963452;28;20211;-84
2023/08/04 11:18:14;;;;;;;2.22;0.98;;;;;;;17.76;85.40;95269.84;4961085;28;20184;-84
2023/08/04 11:20:40;;;;;;;1.80;1.10;;;;;;;17.91;84.16;95280.16;4955211;28;20176;-84
2023/08/04 11:23:11;;;;;;;1.83;1.05;;;;;;;18.01;82.78;95272.69;4961657;28;20184;-84
2023/08/04 11:25:38;;;;;;;3.80;1.30;;;;;;;17.99;83.44;95279.97;4956142;28;20207;-84
2023/08/04 11:28:04;;;;;;;2.33;1.30;;;;;;;18.26;83.13;95281.63;4957992;28;20191;-83